sensor_id;sensor_type;location;lat;lon;timestamp;P1;durP1;ratioP1;P2;durP2;ratioP2
14698;SDS011;7439;50.804;4.602;2023-06-24T00:02:06;9.33;;;8.43;;
14698;SDS011;7439;50.804;4.602;2023-06-24T00:04:36;9.87;;;8.87;;
14698;SDS011;7439;50.804;4.602;2023-06-24T00:10:43;12.40;;;9.47;;
14698;SDS011;7439;50.804;4.602;2023-06-24T00:13:31;9.87;;;8.90;;
14698;SDS011;7439;50.804;4.602;2023-06-24T00:15:59;9.80;;;8.90;;
14698;SDS011;7439;50.804;4.602;2023-06-24T00:21:27;11.67;;;8.73;;
14698;SDS011;7439;50.804;4.602;2023-06-24T00:24:00;10.33;;;9.30;;
14698;SDS011;7439;50.804;4.602;2023-06-24T00:32:37;11.30;;;9.57;;
14698;SDS011;7439;50.804;4.602;2023-06-24T00:35:19;11.07;;;9.87;;
14698;SDS011;7439;50.804;4.602;2023-06-24T00:38:03;11.03;;;8.93;;
14698;SDS011;7439;50.804;4.602;2023-06-24T00:40:47;11.70;;;8.90;;
14698;SDS011;7439;50.804;4.602;2023-06-24T00:43:20;9.50;;;8.50;;
14698;SDS011;7439;50.804;4.602;2023-06-24T00:45:52;10.13;;;9.13;;
14698;SDS011;7439;50.804;4.602;2023-06-24T00:54:18;10.57;;;9.00;;
14698;SDS011;7439;50.804;4.602;2023-06-24T00:56:56;11.17;;;8.67;;
14698;SDS011;7439;50.804;4.602;2023-06-24T00:59:40;12.20;;;9.30;;
14698;SDS011;7439;50.804;4.602;2023-06-24T01:02:22;9.57;;;8.60;;
14698;SDS011;7439;50.804;4.602;2023-06-24T01:05:04;10.03;;;9.03;;
14698;SDS011;7439;50.804;4.602;2023-06-24T01:07:33;10.30;;;9.27;;
14698;SDS011;7439;50.804;4.602;2023-06-24T01:13:18;10.57;;;9.57;;
14698;SDS011;7439;50.804;4.602;2023-06-24T01:15:48;9.97;;;8.97;;
14698;SDS011;7439;50.804;4.602;2023-06-24T01:18:39;9.30;;;8.40;;
14698;SDS011;7439;50.804;4.602;2023-06-24T01:21:25;8.90;;;8.10;;
14698;SDS011;7439;50.804;4.602;2023-06-24T01:32:57;9.90;;;8.53;;
14698;SDS011;7439;50.804;4.602;2023-06-24T01:35:28;11.57;;;8.00;;
14698;SDS011;7439;50.804;4.602;2023-06-24T01:37:58;11.50;;;8.60;;
14698;SDS011;7439;50.804;4.602;2023-06-24T01:40:34;11.13;;;9.20;;
14698;SDS011;7439;50.804;4.602;2023-06-24T01:43:37;12.83;;;8.97;;
14698;SDS011;7439;50.804;4.602;2023-06-24T01:46:38;10.10;;;8.13;;
14698;SDS011;7439;50.804;4.602;2023-06-24T01:49:30;9.17;;;8.37;;
14698;SDS011;7439;50.804;4.602;2023-06-24T01:52:22;9.70;;;8.70;;
14698;SDS011;7439;50.804;4.602;2023-06-24T01:55:05;10.23;;;8.53;;
14698;SDS011;7439;50.804;4.602;2023-06-24T01:57:37;9.30;;;8.40;;
14698;SDS011;7439;50.804;4.602;2023-06-24T02:00:32;12.40;;;9.70;;
14698;SDS011;7439;50.804;4.602;2023-06-24T02:03:15;9.50;;;8.43;;
14698;SDS011;7439;50.804;4.602;2023-06-24T02:05:46;9.60;;;8.50;;
14698;SDS011;7439;50.804;4.602;2023-06-24T02:08:30;14.67;;;9.47;;
14698;SDS011;7439;50.804;4.602;2023-06-24T02:11:00;9.80;;;8.80;;
14698;SDS011;7439;50.804;4.602;2023-06-24T02:13:37;16.17;;;8.33;;
14698;SDS011;7439;50.804;4.602;2023-06-24T02:16:07;10.10;;;8.93;;
14698;SDS011;7439;50.804;4.602;2023-06-24T02:19:24;12.33;;;7.90;;
14698;SDS011;7439;50.804;4.602;2023-06-24T02:22:25;9.43;;;8.50;;
14698;SDS011;7439;50.804;4.602;2023-06-24T02:24:55;8.43;;;7.57;;
14698;SDS011;7439;50.804;4.602;2023-06-24T02:28:00;9.13;;;8.33;;
14698;SDS011;7439;50.804;4.602;2023-06-24T02:30:34;9.33;;;7.70;;
14698;SDS011;7439;50.804;4.602;2023-06-24T02:33:05;13.57;;;8.33;;
14698;SDS011;7439;50.804;4.602;2023-06-24T02:35:34;12.33;;;9.17;;
14698;SDS011;7439;50.804;4.602;2023-06-24T02:38:04;10.07;;;7.87;;
14698;SDS011;7439;50.804;4.602;2023-06-24T02:40:32;10.23;;;7.57;;
14698;SDS011;7439;50.804;4.602;2023-06-24T02:43:25;8.90;;;8.00;;
14698;SDS011;7439;50.804;4.602;2023-06-24T02:45:53;9.50;;;8.00;;
14698;SDS011;7439;50.804;4.602;2023-06-24T02:48:27;14.10;;;8.40;;
14698;SDS011;7439;50.804;4.602;2023-06-24T02:50:55;7.73;;;6.93;;
14698;SDS011;7439;50.804;4.602;2023-06-24T02:53:24;9.97;;;7.97;;
14698;SDS011;7439;50.804;4.602;2023-06-24T02:55:53;9.60;;;7.83;;
14698;SDS011;7439;50.804;4.602;2023-06-24T02:58:24;11.20;;;7.97;;
14698;SDS011;7439;50.804;4.602;2023-06-24T03:00:57;9.30;;;8.30;;
14698;SDS011;7439;50.804;4.602;2023-06-24T03:03:24;9.17;;;6.90;;
14698;SDS011;7439;50.804;4.602;2023-06-24T03:05:53;8.37;;;7.63;;
14698;SDS011;7439;50.804;4.602;2023-06-24T03:08:26;12.97;;;7.33;;
14698;SDS011;7439;50.804;4.602;2023-06-24T03:10:54;12.40;;;8.23;;
14698;SDS011;7439;50.804;4.602;2023-06-24T03:13:22;7.90;;;7.10;;
14698;SDS011;7439;50.804;4.602;2023-06-24T03:15:54;14.30;;;7.63;;
14698;SDS011;7439;50.804;4.602;2023-06-24T03:18:21;8.57;;;7.77;;
14698;SDS011;7439;50.804;4.602;2023-06-24T03:20:49;9.30;;;7.10;;
14698;SDS011;7439;50.804;4.602;2023-06-24T03:23:17;11.47;;;8.13;;
14698;SDS011;7439;50.804;4.602;2023-06-24T03:25:45;14.00;;;8.07;;
14698;SDS011;7439;50.804;4.602;2023-06-24T03:28:12;9.53;;;7.77;;
14698;SDS011;7439;50.804;4.602;2023-06-24T03:30:41;15.30;;;8.90;;
14698;SDS011;7439;50.804;4.602;2023-06-24T03:33:11;8.73;;;7.70;;
14698;SDS011;7439;50.804;4.602;2023-06-24T03:35:42;10.00;;;7.80;;
14698;SDS011;7439;50.804;4.602;2023-06-24T03:38:09;9.90;;;7.40;;
14698;SDS011;7439;50.804;4.602;2023-06-24T03:40:37;8.73;;;7.87;;
14698;SDS011;7439;50.804;4.602;2023-06-24T03:43:04;8.60;;;7.80;;
14698;SDS011;7439;50.804;4.602;2023-06-24T03:45:46;8.93;;;7.83;;
14698;SDS011;7439;50.804;4.602;2023-06-24T03:48:14;9.03;;;8.00;;
14698;SDS011;7439;50.804;4.602;2023-06-24T03:50:42;8.63;;;7.73;;
14698;SDS011;7439;50.804;4.602;2023-06-24T03:53:09;10.87;;;8.37;;
14698;SDS011;7439;50.804;4.602;2023-06-24T03:55:37;9.83;;;8.60;;
14698;SDS011;7439;50.804;4.602;2023-06-24T03:58:04;8.73;;;7.43;;
14698;SDS011;7439;50.804;4.602;2023-06-24T04:03:23;9.03;;;7.67;;
14698;SDS011;7439;50.804;4.602;2023-06-24T04:05:52;8.70;;;7.80;;
14698;SDS011;7439;50.804;4.602;2023-06-24T04:08:21;11.83;;;8.73;;
14698;SDS011;7439;50.804;4.602;2023-06-24T04:11:00;12.87;;;8.20;;
14698;SDS011;7439;50.804;4.602;2023-06-24T04:13:28;9.33;;;8.07;;
14698;SDS011;7439;50.804;4.602;2023-06-24T04:16:19;11.30;;;8.47;;
14698;SDS011;7439;50.804;4.602;2023-06-24T04:21:51;11.37;;;8.90;;
14698;SDS011;7439;50.804;4.602;2023-06-24T04:24:19;12.40;;;8.50;;
14698;SDS011;7439;50.804;4.602;2023-06-24T04:26:50;9.67;;;8.37;;
14698;SDS011;7439;50.804;4.602;2023-06-24T04:29:20;9.97;;;8.83;;
14698;SDS011;7439;50.804;4.602;2023-06-24T04:31:47;9.67;;;8.67;;
14698;SDS011;7439;50.804;4.602;2023-06-24T04:34:15;10.73;;;8.47;;
14698;SDS011;7439;50.804;4.602;2023-06-24T04:36:42;9.80;;;8.07;;
14698;SDS011;7439;50.804;4.602;2023-06-24T04:39:11;10.53;;;9.17;;
14698;SDS011;7439;50.804;4.602;2023-06-24T04:41:39;9.30;;;7.60;;
14698;SDS011;7439;50.804;4.602;2023-06-24T04:44:06;9.43;;;8.53;;
14698;SDS011;7439;50.804;4.602;2023-06-24T04:46:33;15.97;;;10.53;;
14698;SDS011;7439;50.804;4.602;2023-06-24T04:49:01;15.27;;;9.90;;
14698;SDS011;7439;50.804;4.602;2023-06-24T04:51:28;11.60;;;9.47;;
14698;SDS011;7439;50.804;4.602;2023-06-24T04:53:55;13.03;;;9.33;;
14698;SDS011;7439;50.804;4.602;2023-06-24T04:56:24;10.67;;;9.57;;
14698;SDS011;7439;50.804;4.602;2023-06-24T04:58:53;15.83;;;11.00;;
14698;SDS011;7439;50.804;4.602;2023-06-24T05:01:21;10.43;;;9.47;;
14698;SDS011;7439;50.804;4.602;2023-06-24T05:03:49;16.07;;;11.23;;
14698;SDS011;7439;50.804;4.602;2023-06-24T05:06:17;11.23;;;9.80;;
14698;SDS011;7439;50.804;4.602;2023-06-24T05:08:44;10.80;;;9.70;;
14698;SDS011;7439;50.804;4.602;2023-06-24T05:11:11;10.73;;;9.73;;
14698;SDS011;7439;50.804;4.602;2023-06-24T05:13:41;16.43;;;10.70;;
14698;SDS011;7439;50.804;4.602;2023-06-24T05:16:08;13.90;;;10.63;;
14698;SDS011;7439;50.804;4.602;2023-06-24T05:18:35;15.07;;;9.43;;
14698;SDS011;7439;50.804;4.602;2023-06-24T05:21:02;13.97;;;9.70;;
14698;SDS011;7439;50.804;4.602;2023-06-24T05:23:30;14.00;;;9.70;;
14698;SDS011;7439;50.804;4.602;2023-06-24T05:25:58;12.30;;;8.30;;
14698;SDS011;7439;50.804;4.602;2023-06-24T05:28:25;9.90;;;8.90;;
14698;SDS011;7439;50.804;4.602;2023-06-24T05:30:54;12.43;;;8.80;;
14698;SDS011;7439;50.804;4.602;2023-06-24T05:33:22;10.53;;;8.83;;
14698;SDS011;7439;50.804;4.602;2023-06-24T05:35:49;9.60;;;8.00;;
14698;SDS011;7439;50.804;4.602;2023-06-24T05:38:17;12.97;;;8.90;;
14698;SDS011;7439;50.804;4.602;2023-06-24T05:40:45;8.90;;;8.00;;
14698;SDS011;7439;50.804;4.602;2023-06-24T05:43:12;8.87;;;7.53;;
14698;SDS011;7439;50.804;4.602;2023-06-24T05:45:40;10.80;;;7.20;;
14698;SDS011;7439;50.804;4.602;2023-06-24T05:48:09;8.27;;;7.47;;
14698;SDS011;7439;50.804;4.602;2023-06-24T05:50:36;8.10;;;7.30;;
14698;SDS011;7439;50.804;4.602;2023-06-24T05:53:03;10.70;;;7.10;;
14698;SDS011;7439;50.804;4.602;2023-06-24T05:55:31;8.40;;;6.97;;
14698;SDS011;7439;50.804;4.602;2023-06-24T05:57:58;7.90;;;7.10;;
14698;SDS011;7439;50.804;4.602;2023-06-24T06:00:26;7.73;;;6.53;;
14698;SDS011;7439;50.804;4.602;2023-06-24T06:02:53;8.03;;;6.73;;
14698;SDS011;7439;50.804;4.602;2023-06-24T06:05:22;7.33;;;5.90;;
14698;SDS011;7439;50.804;4.602;2023-06-24T06:07:50;7.67;;;6.40;;
14698;SDS011;7439;50.804;4.602;2023-06-24T06:10:18;7.13;;;6.43;;
14698;SDS011;7439;50.804;4.602;2023-06-24T06:12:46;6.20;;;5.60;;
14698;SDS011;7439;50.804;4.602;2023-06-24T06:15:14;7.27;;;5.80;;
14698;SDS011;7439;50.804;4.602;2023-06-24T06:17:41;6.57;;;5.97;;
14698;SDS011;7439;50.804;4.602;2023-06-24T06:20:09;5.53;;;5.03;;
14698;SDS011;7439;50.804;4.602;2023-06-24T06:22:38;7.13;;;5.50;;
14698;SDS011;7439;50.804;4.602;2023-06-24T06:25:05;7.00;;;5.37;;
14698;SDS011;7439;50.804;4.602;2023-06-24T06:27:33;7.70;;;5.37;;
14698;SDS011;7439;50.804;4.602;2023-06-24T06:30:00;7.80;;;5.27;;
14698;SDS011;7439;50.804;4.602;2023-06-24T06:32:28;5.53;;;4.43;;
14698;SDS011;7439;50.804;4.602;2023-06-24T06:34:55;5.43;;;4.50;;
14698;SDS011;7439;50.804;4.602;2023-06-24T06:37:22;5.83;;;4.60;;
14698;SDS011;7439;50.804;4.602;2023-06-24T06:39:51;6.83;;;4.10;;
14698;SDS011;7439;50.804;4.602;2023-06-24T06:42:19;4.30;;;3.90;;
14698;SDS011;7439;50.804;4.602;2023-06-24T06:44:46;5.77;;;4.80;;
14698;SDS011;7439;50.804;4.602;2023-06-24T06:47:13;6.07;;;4.60;;
14698;SDS011;7439;50.804;4.602;2023-06-24T06:49:41;5.00;;;4.33;;
14698;SDS011;7439;50.804;4.602;2023-06-24T06:52:08;6.13;;;3.97;;
14698;SDS011;7439;50.804;4.602;2023-06-24T06:54:36;4.47;;;4.07;;
14698;SDS011;7439;50.804;4.602;2023-06-24T06:57:05;4.03;;;3.67;;
14698;SDS011;7439;50.804;4.602;2023-06-24T06:59:32;4.20;;;3.50;;
14698;SDS011;7439;50.804;4.602;2023-06-24T07:02:00;4.33;;;3.90;;
14698;SDS011;7439;50.804;4.602;2023-06-24T07:04:30;4.60;;;3.97;;
14698;SDS011;7439;50.804;4.602;2023-06-24T07:06:58;3.63;;;3.33;;
14698;SDS011;7439;50.804;4.602;2023-06-24T07:09:26;5.10;;;3.70;;
14698;SDS011;7439;50.804;4.602;2023-06-24T07:11:53;4.20;;;3.77;;
14698;SDS011;7439;50.804;4.602;2023-06-24T07:14:22;4.07;;;3.67;;
14698;SDS011;7439;50.804;4.602;2023-06-24T07:16:49;4.13;;;3.57;;
14698;SDS011;7439;50.804;4.602;2023-06-24T07:19:17;3.67;;;3.37;;
14698;SDS011;7439;50.804;4.602;2023-06-24T07:21:44;4.50;;;4.10;;
14698;SDS011;7439;50.804;4.602;2023-06-24T07:24:12;5.03;;;3.93;;
14698;SDS011;7439;50.804;4.602;2023-06-24T07:26:39;3.20;;;3.00;;
14698;SDS011;7439;50.804;4.602;2023-06-24T07:29:07;3.33;;;2.93;;
14698;SDS011;7439;50.804;4.602;2023-06-24T07:31:38;5.03;;;3.10;;
14698;SDS011;7439;50.804;4.602;2023-06-24T07:34:07;3.70;;;2.93;;
14698;SDS011;7439;50.804;4.602;2023-06-24T07:36:34;3.60;;;3.30;;
14698;SDS011;7439;50.804;4.602;2023-06-24T07:39:01;3.80;;;2.93;;
14698;SDS011;7439;50.804;4.602;2023-06-24T07:41:31;3.70;;;2.80;;
14698;SDS011;7439;50.804;4.602;2023-06-24T07:43:59;2.63;;;2.43;;
14698;SDS011;7439;50.804;4.602;2023-06-24T07:46:27;3.70;;;2.83;;
14698;SDS011;7439;50.804;4.602;2023-06-24T07:48:58;3.53;;;3.13;;
14698;SDS011;7439;50.804;4.602;2023-06-24T07:51:31;4.57;;;2.93;;
14698;SDS011;7439;50.804;4.602;2023-06-24T07:54:03;3.87;;;2.87;;
14698;SDS011;7439;50.804;4.602;2023-06-24T07:56:35;5.53;;;2.87;;
14698;SDS011;7439;50.804;4.602;2023-06-24T07:59:16;3.60;;;2.93;;
14698;SDS011;7439;50.804;4.602;2023-06-24T08:01:44;2.93;;;2.63;;
14698;SDS011;7439;50.804;4.602;2023-06-24T08:04:14;3.20;;;2.83;;
14698;SDS011;7439;50.804;4.602;2023-06-24T08:06:42;3.50;;;3.20;;
14698;SDS011;7439;50.804;4.602;2023-06-24T08:09:10;3.50;;;3.00;;
14698;SDS011;7439;50.804;4.602;2023-06-24T08:11:38;2.80;;;2.60;;
14698;SDS011;7439;50.804;4.602;2023-06-24T08:14:05;3.17;;;2.87;;
14698;SDS011;7439;50.804;4.602;2023-06-24T08:16:33;2.90;;;2.70;;
14698;SDS011;7439;50.804;4.602;2023-06-24T08:19:01;3.20;;;2.90;;
14698;SDS011;7439;50.804;4.602;2023-06-24T08:21:30;2.97;;;2.37;;
14698;SDS011;7439;50.804;4.602;2023-06-24T08:23:59;2.87;;;2.67;;
14698;SDS011;7439;50.804;4.602;2023-06-24T08:26:27;5.10;;;2.53;;
14698;SDS011;7439;50.804;4.602;2023-06-24T08:28:57;3.47;;;2.80;;
14698;SDS011;7439;50.804;4.602;2023-06-24T08:31:25;2.70;;;2.40;;
14698;SDS011;7439;50.804;4.602;2023-06-24T08:34:02;2.93;;;2.60;;
14698;SDS011;7439;50.804;4.602;2023-06-24T08:36:32;3.20;;;2.83;;
14698;SDS011;7439;50.804;4.602;2023-06-24T08:39:01;2.97;;;2.33;;
14698;SDS011;7439;50.804;4.602;2023-06-24T08:41:29;2.97;;;2.67;;
14698;SDS011;7439;50.804;4.602;2023-06-24T08:43:56;3.50;;;2.80;;
14698;SDS011;7439;50.804;4.602;2023-06-24T08:46:24;3.53;;;2.43;;
14698;SDS011;7439;50.804;4.602;2023-06-24T08:48:53;2.60;;;2.40;;
14698;SDS011;7439;50.804;4.602;2023-06-24T08:51:24;2.97;;;2.27;;
14698;SDS011;7439;50.804;4.602;2023-06-24T08:54:02;3.00;;;2.57;;
14698;SDS011;7439;50.804;4.602;2023-06-24T08:56:29;2.80;;;2.47;;
14698;SDS011;7439;50.804;4.602;2023-06-24T08:58:59;4.27;;;2.77;;
14698;SDS011;7439;50.804;4.602;2023-06-24T09:01:46;3.30;;;2.33;;
14698;SDS011;7439;50.804;4.602;2023-06-24T09:04:13;3.63;;;2.63;;
14698;SDS011;7439;50.804;4.602;2023-06-24T09:06:41;3.37;;;2.80;;
14698;SDS011;7439;50.804;4.602;2023-06-24T09:09:18;2.80;;;2.60;;
14698;SDS011;7439;50.804;4.602;2023-06-24T09:11:52;2.60;;;2.40;;
14698;SDS011;7439;50.804;4.602;2023-06-24T09:14:19;2.37;;;2.17;;
14698;SDS011;7439;50.804;4.602;2023-06-24T09:16:53;3.23;;;2.73;;
14698;SDS011;7439;50.804;4.602;2023-06-24T09:19:21;4.67;;;2.70;;
14698;SDS011;7439;50.804;4.602;2023-06-24T09:21:49;3.03;;;2.83;;
14698;SDS011;7439;50.804;4.602;2023-06-24T09:24:20;2.30;;;2.10;;
14698;SDS011;7439;50.804;4.602;2023-06-24T09:26:49;2.67;;;2.47;;
14698;SDS011;7439;50.804;4.602;2023-06-24T09:29:25;2.20;;;2.00;;
14698;SDS011;7439;50.804;4.602;2023-06-24T09:31:54;2.70;;;2.50;;
14698;SDS011;7439;50.804;4.602;2023-06-24T09:34:23;3.17;;;2.33;;
14698;SDS011;7439;50.804;4.602;2023-06-24T09:36:51;3.20;;;2.20;;
14698;SDS011;7439;50.804;4.602;2023-06-24T09:39:21;2.83;;;2.10;;
14698;SDS011;7439;50.804;4.602;2023-06-24T09:41:53;2.63;;;2.30;;
14698;SDS011;7439;50.804;4.602;2023-06-24T09:44:21;2.73;;;2.53;;
14698;SDS011;7439;50.804;4.602;2023-06-24T09:46:48;3.97;;;2.67;;
14698;SDS011;7439;50.804;4.602;2023-06-24T09:49:16;3.50;;;2.37;;
14698;SDS011;7439;50.804;4.602;2023-06-24T09:51:48;2.73;;;2.53;;
14698;SDS011;7439;50.804;4.602;2023-06-24T09:54:17;2.90;;;2.60;;
14698;SDS011;7439;50.804;4.602;2023-06-24T09:56:47;3.53;;;2.30;;
14698;SDS011;7439;50.804;4.602;2023-06-24T09:59:17;2.73;;;2.53;;
14698;SDS011;7439;50.804;4.602;2023-06-24T10:01:46;2.30;;;2.00;;
14698;SDS011;7439;50.804;4.602;2023-06-24T10:04:20;2.23;;;2.13;;
14698;SDS011;7439;50.804;4.602;2023-06-24T10:07:02;2.30;;;2.20;;
14698;SDS011;7439;50.804;4.602;2023-06-24T10:09:30;2.43;;;2.23;;
14698;SDS011;7439;50.804;4.602;2023-06-24T10:11:59;3.83;;;2.40;;
14698;SDS011;7439;50.804;4.602;2023-06-24T10:14:26;2.83;;;2.23;;
14698;SDS011;7439;50.804;4.602;2023-06-24T10:17:00;2.50;;;2.30;;
14698;SDS011;7439;50.804;4.602;2023-06-24T10:19:29;3.90;;;2.33;;
14698;SDS011;7439;50.804;4.602;2023-06-24T10:22:10;2.90;;;2.30;;
14698;SDS011;7439;50.804;4.602;2023-06-24T10:24:38;2.53;;;2.30;;
14698;SDS011;7439;50.804;4.602;2023-06-24T10:29:54;1.87;;;1.77;;
14698;SDS011;7439;50.804;4.602;2023-06-24T10:32:22;2.23;;;1.93;;
14698;SDS011;7439;50.804;4.602;2023-06-24T10:34:53;2.10;;;1.90;;
14698;SDS011;7439;50.804;4.602;2023-06-24T10:37:22;2.10;;;2.00;;
14698;SDS011;7439;50.804;4.602;2023-06-24T10:39:50;3.30;;;2.40;;
14698;SDS011;7439;50.804;4.602;2023-06-24T10:42:29;2.10;;;1.87;;
14698;SDS011;7439;50.804;4.602;2023-06-24T10:44:58;2.57;;;2.10;;
14698;SDS011;7439;50.804;4.602;2023-06-24T10:47:26;2.40;;;2.20;;
14698;SDS011;7439;50.804;4.602;2023-06-24T10:49:54;2.17;;;1.90;;
14698;SDS011;7439;50.804;4.602;2023-06-24T10:52:22;1.80;;;1.70;;
14698;SDS011;7439;50.804;4.602;2023-06-24T10:54:50;2.00;;;1.90;;
14698;SDS011;7439;50.804;4.602;2023-06-24T10:57:22;2.33;;;2.10;;
14698;SDS011;7439;50.804;4.602;2023-06-24T10:59:49;2.00;;;1.90;;
14698;SDS011;7439;50.804;4.602;2023-06-24T11:02:19;2.30;;;2.20;;
14698;SDS011;7439;50.804;4.602;2023-06-24T11:04:47;2.33;;;2.10;;
14698;SDS011;7439;50.804;4.602;2023-06-24T11:07:16;1.90;;;1.80;;
14698;SDS011;7439;50.804;4.602;2023-06-24T11:09:48;2.00;;;1.90;;
14698;SDS011;7439;50.804;4.602;2023-06-24T11:12:16;1.97;;;1.77;;
14698;SDS011;7439;50.804;4.602;2023-06-24T11:14:43;1.83;;;1.73;;
14698;SDS011;7439;50.804;4.602;2023-06-24T11:17:11;1.95;;;1.85;;
14698;SDS011;7439;50.804;4.602;2023-06-24T11:19:43;1.95;;;1.85;;
14698;SDS011;7439;50.804;4.602;2023-06-24T11:22:11;2.00;;;1.80;;
14698;SDS011;7439;50.804;4.602;2023-06-24T11:24:39;1.67;;;1.58;;
14698;SDS011;7439;50.804;4.602;2023-06-24T11:27:09;2.20;;;2.00;;
14698;SDS011;7439;50.804;4.602;2023-06-24T11:29:52;1.85;;;1.75;;
14698;SDS011;7439;50.804;4.602;2023-06-24T11:32:37;2.20;;;2.00;;
14698;SDS011;7439;50.804;4.602;2023-06-24T11:35:09;2.22;;;2.03;;
14698;SDS011;7439;50.804;4.602;2023-06-24T11:37:40;2.13;;;2.00;;
14698;SDS011;7439;50.804;4.602;2023-06-24T11:40:08;2.17;;;1.90;;
14698;SDS011;7439;50.804;4.602;2023-06-24T11:42:37;2.57;;;2.00;;
14698;SDS011;7439;50.804;4.602;2023-06-24T11:45:05;2.53;;;1.88;;
14698;SDS011;7439;50.804;4.602;2023-06-24T11:47:33;2.00;;;1.90;;
14698;SDS011;7439;50.804;4.602;2023-06-24T11:50:01;1.90;;;1.80;;
14698;SDS011;7439;50.804;4.602;2023-06-24T11:52:37;3.87;;;1.90;;
14698;SDS011;7439;50.804;4.602;2023-06-24T11:55:10;2.78;;;2.35;;
14698;SDS011;7439;50.804;4.602;2023-06-24T11:57:51;2.00;;;1.90;;
14698;SDS011;7439;50.804;4.602;2023-06-24T12:00:22;2.35;;;2.15;;
14698;SDS011;7439;50.804;4.602;2023-06-24T12:02:50;1.73;;;1.63;;
14698;SDS011;7439;50.804;4.602;2023-06-24T12:05:25;2.00;;;1.75;;
14698;SDS011;7439;50.804;4.602;2023-06-24T12:08:01;2.13;;;1.92;;
14698;SDS011;7439;50.804;4.602;2023-06-24T12:10:29;7.15;;;2.17;;
14698;SDS011;7439;50.804;4.602;2023-06-24T12:12:57;2.35;;;2.17;;
14698;SDS011;7439;50.804;4.602;2023-06-24T12:15:25;2.42;;;2.22;;
14698;SDS011;7439;50.804;4.602;2023-06-24T12:17:52;2.22;;;2.03;;
14698;SDS011;7439;50.804;4.602;2023-06-24T12:20:21;1.85;;;1.75;;
14698;SDS011;7439;50.804;4.602;2023-06-24T12:22:49;2.30;;;2.10;;
14698;SDS011;7439;50.804;4.602;2023-06-24T12:25:18;2.22;;;2.03;;
14698;SDS011;7439;50.804;4.602;2023-06-24T12:27:45;2.20;;;2.00;;
14698;SDS011;7439;50.804;4.602;2023-06-24T12:30:13;2.17;;;1.98;;
14698;SDS011;7439;50.804;4.602;2023-06-24T12:32:41;2.47;;;2.03;;
14698;SDS011;7439;50.804;4.602;2023-06-24T12:35:09;2.30;;;2.10;;
14698;SDS011;7439;50.804;4.602;2023-06-24T12:37:37;2.08;;;1.98;;
14698;SDS011;7439;50.804;4.602;2023-06-24T12:40:05;2.40;;;2.20;;
14698;SDS011;7439;50.804;4.602;2023-06-24T12:42:36;2.33;;;2.20;;
14698;SDS011;7439;50.804;4.602;2023-06-24T12:45:05;2.40;;;2.20;;
14698;SDS011;7439;50.804;4.602;2023-06-24T12:47:33;2.47;;;2.25;;
14698;SDS011;7439;50.804;4.602;2023-06-24T12:50:01;2.22;;;2.05;;
14698;SDS011;7439;50.804;4.602;2023-06-24T12:52:31;2.38;;;2.17;;
14698;SDS011;7439;50.804;4.602;2023-06-24T12:54:59;3.67;;;2.17;;
14698;SDS011;7439;50.804;4.602;2023-06-24T12:57:26;2.50;;;2.30;;
14698;SDS011;7439;50.804;4.602;2023-06-24T12:59:55;2.35;;;2.15;;
14698;SDS011;7439;50.804;4.602;2023-06-24T13:02:24;2.20;;;2.10;;
14698;SDS011;7439;50.804;4.602;2023-06-24T13:04:52;2.28;;;2.08;;
14698;SDS011;7439;50.804;4.602;2023-06-24T13:07:19;3.55;;;2.20;;
14698;SDS011;7439;50.804;4.602;2023-06-24T13:09:47;2.35;;;2.13;;
14698;SDS011;7439;50.804;4.602;2023-06-24T13:12:14;2.75;;;2.55;;
14698;SDS011;7439;50.804;4.602;2023-06-24T13:14:41;2.40;;;2.10;;
14698;SDS011;7439;50.804;4.602;2023-06-24T13:17:10;2.30;;;2.20;;
14698;SDS011;7439;50.804;4.602;2023-06-24T13:19:38;3.03;;;2.47;;
14698;SDS011;7439;50.804;4.602;2023-06-24T13:22:06;2.50;;;2.30;;
14698;SDS011;7439;50.804;4.602;2023-06-24T13:24:33;2.33;;;2.13;;
14698;SDS011;7439;50.804;4.602;2023-06-24T13:27:00;2.42;;;2.17;;
14698;SDS011;7439;50.804;4.602;2023-06-24T13:29:28;2.75;;;2.40;;
14698;SDS011;7439;50.804;4.602;2023-06-24T13:31:56;2.28;;;2.15;;
14698;SDS011;7439;50.804;4.602;2023-06-24T13:34:25;2.28;;;2.08;;
14698;SDS011;7439;50.804;4.602;2023-06-24T13:36:52;2.30;;;2.10;;
14698;SDS011;7439;50.804;4.602;2023-06-24T13:39:20;2.30;;;2.10;;
14698;SDS011;7439;50.804;4.602;2023-06-24T13:41:49;2.63;;;2.42;;
14698;SDS011;7439;50.804;4.602;2023-06-24T13:44:17;1.95;;;1.85;;
14698;SDS011;7439;50.804;4.602;2023-06-24T13:46:45;3.03;;;2.13;;
14698;SDS011;7439;50.804;4.602;2023-06-24T13:49:12;2.50;;;2.30;;
14698;SDS011;7439;50.804;4.602;2023-06-24T13:51:41;2.60;;;2.40;;
14698;SDS011;7439;50.804;4.602;2023-06-24T13:54:08;2.60;;;2.40;;
14698;SDS011;7439;50.804;4.602;2023-06-24T13:56:36;2.92;;;2.10;;
14698;SDS011;7439;50.804;4.602;2023-06-24T13:59:03;2.22;;;2.03;;
14698;SDS011;7439;50.804;4.602;2023-06-24T14:01:31;2.15;;;1.98;;
14698;SDS011;7439;50.804;4.602;2023-06-24T14:03:58;3.22;;;2.10;;
14698;SDS011;7439;50.804;4.602;2023-06-24T14:06:26;2.50;;;2.30;;
14698;SDS011;7439;50.804;4.602;2023-06-24T14:08:55;2.70;;;2.50;;
14698;SDS011;7439;50.804;4.602;2023-06-24T14:11:22;4.80;;;2.55;;
14698;SDS011;7439;50.804;4.602;2023-06-24T14:13:50;2.42;;;2.22;;
14698;SDS011;7439;50.804;4.602;2023-06-24T14:16:17;2.77;;;2.57;;
14698;SDS011;7439;50.804;4.602;2023-06-24T14:18:45;2.47;;;2.27;;
14698;SDS011;7439;50.804;4.602;2023-06-24T14:21:12;2.07;;;1.90;;
14698;SDS011;7439;50.804;4.602;2023-06-24T14:23:39;2.70;;;2.37;;
14698;SDS011;7439;50.804;4.602;2023-06-24T14:26:08;2.53;;;2.33;;
14698;SDS011;7439;50.804;4.602;2023-06-24T14:28:36;2.60;;;2.40;;
14698;SDS011;7439;50.804;4.602;2023-06-24T14:31:03;2.77;;;2.57;;
14698;SDS011;7439;50.804;4.602;2023-06-24T14:33:31;2.60;;;2.40;;
14698;SDS011;7439;50.804;4.602;2023-06-24T14:35:58;3.27;;;2.20;;
14698;SDS011;7439;50.804;4.602;2023-06-24T14:38:25;2.23;;;2.13;;
14698;SDS011;7439;50.804;4.602;2023-06-24T14:40:53;2.60;;;2.40;;
14698;SDS011;7439;50.804;4.602;2023-06-24T14:43:23;2.57;;;2.37;;
14698;SDS011;7439;50.804;4.602;2023-06-24T14:45:51;2.60;;;2.40;;
14698;SDS011;7439;50.804;4.602;2023-06-24T14:48:18;2.77;;;2.57;;
14698;SDS011;7439;50.804;4.602;2023-06-24T14:50:46;2.33;;;2.13;;
14698;SDS011;7439;50.804;4.602;2023-06-24T14:53:13;2.53;;;2.33;;
14698;SDS011;7439;50.804;4.602;2023-06-24T14:55:40;2.50;;;2.30;;
14698;SDS011;7439;50.804;4.602;2023-06-24T14:58:08;3.03;;;2.50;;
14698;SDS011;7439;50.804;4.602;2023-06-24T15:00:37;2.50;;;2.30;;
14698;SDS011;7439;50.804;4.602;2023-06-24T15:03:05;2.47;;;2.27;;
14698;SDS011;7439;50.804;4.602;2023-06-24T15:05:33;3.57;;;2.30;;
14698;SDS011;7439;50.804;4.602;2023-06-24T15:08:01;2.80;;;2.60;;
14698;SDS011;7439;50.804;4.602;2023-06-24T15:10:28;2.33;;;2.20;;
14698;SDS011;7439;50.804;4.602;2023-06-24T15:12:55;3.33;;;2.63;;
14698;SDS011;7439;50.804;4.602;2023-06-24T15:15:23;2.40;;;2.20;;
14698;SDS011;7439;50.804;4.602;2023-06-24T15:17:52;2.30;;;2.10;;
14698;SDS011;7439;50.804;4.602;2023-06-24T15:20:19;2.60;;;2.40;;
14698;SDS011;7439;50.804;4.602;2023-06-24T15:22:46;2.53;;;2.33;;
14698;SDS011;7439;50.804;4.602;2023-06-24T15:25:14;2.20;;;2.10;;
14698;SDS011;7439;50.804;4.602;2023-06-24T15:27:41;3.03;;;2.53;;
14698;SDS011;7439;50.804;4.602;2023-06-24T15:30:09;2.50;;;2.30;;
14698;SDS011;7439;50.804;4.602;2023-06-24T15:32:36;3.27;;;2.10;;
14698;SDS011;7439;50.804;4.602;2023-06-24T15:35:06;2.47;;;2.27;;
14698;SDS011;7439;50.804;4.602;2023-06-24T15:37:33;2.93;;;2.73;;
14698;SDS011;7439;50.804;4.602;2023-06-24T15:40:01;2.83;;;2.63;;
14698;SDS011;7439;50.804;4.602;2023-06-24T15:42:28;2.50;;;2.30;;
14698;SDS011;7439;50.804;4.602;2023-06-24T15:44:55;2.80;;;2.60;;
14698;SDS011;7439;50.804;4.602;2023-06-24T15:47:23;2.50;;;2.30;;
14698;SDS011;7439;50.804;4.602;2023-06-24T15:49:50;2.60;;;2.40;;
14698;SDS011;7439;50.804;4.602;2023-06-24T15:52:19;2.60;;;2.40;;
14698;SDS011;7439;50.804;4.602;2023-06-24T15:54:46;2.80;;;2.60;;
14698;SDS011;7439;50.804;4.602;2023-06-24T15:57:14;4.40;;;2.73;;